createdAt,value
2018-01-29T00:00:42.117Z,8.31
2018-01-29T00:01:42.054Z,8.38
2018-01-29T00:02:41.507Z,8.31
2018-01-29T00:03:41.898Z,8.38
2018-01-29T00:04:41.461Z,8.31
2018-01-29T00:05:42.402Z,8.31
2018-01-29T00:06:42.112Z,8.31
2018-01-29T00:07:41.731Z,8.31
2018-01-29T00:08:41.589Z,8.31
2018-01-29T00:09:43.116Z,8.38
2018-01-29T00:10:42.430Z,8.38
2018-01-29T00:11:42.267Z,8.31
2018-01-29T00:12:41.301Z,8.31
2018-01-29T00:13:41.062Z,8.31
2018-01-29T00:14:41.027Z,8.31
2018-01-29T00:15:41.858Z,8.31
2018-01-29T00:16:41.334Z,8.31
2018-01-29T00:17:43.047Z,8.31
2018-01-29T00:18:42.450Z,8.31
2018-01-29T00:19:42.472Z,8.31
2018-01-29T00:20:41.525Z,8.31
2018-01-29T00:21:42.818Z,8.31
2018-01-29T00:22:41.382Z,8.31
2018-01-29T00:23:42.124Z,8.25
2018-01-29T00:24:41.846Z,8.25
2018-01-29T00:25:42.132Z,8.31
2018-01-29T00:26:40.962Z,8.25
2018-01-29T00:27:42.266Z,8.31
2018-01-29T00:28:41.931Z,8.31
2018-01-29T00:29:41.847Z,8.25
2018-01-29T00:30:40.676Z,8.25
2018-01-29T00:31:41.554Z,8.31
2018-01-29T00:32:39.934Z,8.25
2018-01-29T00:33:41.467Z,8.31
2018-01-29T00:34:39.966Z,8.25
2018-01-29T00:35:40.739Z,8.31
2018-01-29T00:36:41.426Z,8.31
2018-01-29T00:37:41.302Z,8.25
2018-01-29T00:38:41.349Z,8.31
2018-01-29T00:39:41.334Z,8.25
2018-01-29T00:40:41.892Z,8.31
2018-01-29T00:41:41.591Z,8.31
2018-01-29T00:42:41.752Z,8.25
2018-01-29T00:43:40.103Z,8.25
2018-01-29T00:44:42.100Z,8.25
2018-01-29T00:45:43.991Z,8.31
2018-01-29T00:46:43.065Z,8.31
2018-01-29T00:47:39.772Z,8.25
2018-01-29T00:48:41.337Z,8.31
2018-01-29T00:49:41.526Z,8.31
2018-01-29T00:50:41.301Z,8.25
2018-01-29T00:51:41.868Z,8.25
2018-01-29T00:52:41.012Z,8.31
2018-01-29T00:53:40.396Z,8.25
2018-01-29T00:54:41.622Z,8.31
2018-01-29T00:55:40.053Z,8.25
2018-01-29T00:56:41.778Z,8.31
2018-01-29T00:57:40.673Z,8.25
2018-01-29T00:58:40.090Z,8.25
2018-01-29T00:59:42.785Z,8.25
2018-01-29T01:00:40.448Z,8.31
2018-01-29T01:01:41.898Z,8.25
2018-01-29T01:02:40.108Z,8.25
2018-01-29T01:03:39.539Z,8.25
2018-01-29T01:04:41.230Z,8.25
2018-01-29T01:05:42.271Z,8.31
2018-01-29T01:06:39.820Z,8.25
2018-01-29T01:07:41.070Z,8.31
2018-01-29T01:08:39.852Z,8.31
2018-01-29T01:09:39.828Z,8.25
2018-01-29T01:10:41.076Z,8.31
2018-01-29T01:11:40.527Z,8.31
2018-01-29T01:12:39.909Z,8.25
2018-01-29T01:13:40.588Z,8.25
2018-01-29T01:14:40.812Z,8.31
2018-01-29T01:15:41.195Z,8.25
2018-01-29T01:16:39.712Z,8.31
2018-01-29T01:17:42.733Z,8.31
2018-01-29T01:18:39.616Z,8.31
2018-01-29T01:19:42.974Z,8.31
2018-01-29T01:20:40.684Z,8.31
2018-01-29T01:21:41.184Z,8.31
2018-01-29T01:22:41.310Z,8.31
2018-01-29T01:23:41.712Z,8.31
2018-01-29T01:24:40.344Z,8.25
2018-01-29T01:25:41.878Z,8.31
2018-01-29T01:26:43.996Z,8.25
2018-01-29T01:27:42.704Z,8.25
2018-01-29T01:28:40.959Z,8.31
2018-01-29T01:29:40.406Z,8.31
2018-01-29T01:30:41.795Z,8.31
2018-01-29T01:31:41.182Z,8.25
2018-01-29T01:32:40.465Z,8.31
2018-01-29T01:33:40.509Z,8.31
2018-01-29T01:34:39.711Z,8.25
2018-01-29T01:35:40.554Z,8.31
2018-01-29T01:36:41.956Z,8.31
2018-01-29T01:37:41.470Z,8.31
2018-01-29T01:38:41.727Z,8.31
2018-01-29T01:39:39.973Z,8.25
2018-01-29T01:40:40.789Z,8.31
2018-01-29T01:41:42.030Z,8.25
2018-01-29T01:42:43.401Z,8.25
2018-01-29T01:43:41.306Z,8.31
2018-01-29T01:44:40.775Z,8.31
2018-01-29T01:45:40.687Z,8.25
2018-01-29T01:46:40.152Z,8.31
2018-01-29T01:47:41.120Z,8.31
2018-01-29T01:48:40.852Z,8.31
2018-01-29T01:49:40.092Z,8.31
2018-01-29T01:50:40.549Z,8.25
2018-01-29T01:51:39.815Z,8.25
2018-01-29T01:52:41.472Z,8.31
2018-01-29T01:53:40.057Z,8.25
2018-01-29T01:54:40.543Z,8.25
2018-01-29T01:55:40.446Z,8.31
2018-01-29T01:56:39.842Z,8.31
2018-01-29T01:57:40.290Z,8.31
2018-01-29T01:58:39.972Z,8.25
2018-01-29T01:59:41.177Z,8.25
2018-01-29T02:00:40.072Z,8.31
2018-01-29T02:01:42.709Z,8.25
2018-01-29T02:02:40.890Z,8.31
2018-01-29T02:03:41.687Z,8.25
2018-01-29T02:04:41.539Z,8.31
2018-01-29T02:05:39.913Z,8.31
2018-01-29T02:06:40.558Z,8.25
2018-01-29T02:07:39.694Z,8.31
2018-01-29T02:08:40.820Z,8.25
2018-01-29T02:09:41.502Z,8.31
2018-01-29T02:10:39.846Z,8.25
2018-01-29T02:11:40.582Z,8.31
2018-01-29T02:12:46.069Z,8.31
2018-01-29T02:13:42.006Z,8.25
2018-01-29T02:14:43.036Z,8.31
2018-01-29T02:15:41.998Z,8.31
2018-01-29T02:16:41.179Z,8.25
2018-01-29T02:17:41.778Z,8.25
2018-01-29T02:18:40.604Z,8.31
2018-01-29T02:19:41.306Z,8.25
2018-01-29T02:20:42.401Z,8.25
2018-01-29T02:21:40.815Z,8.25
2018-01-29T02:22:41.438Z,8.25
2018-01-29T02:23:42.227Z,8.25
2018-01-29T02:24:41.314Z,8.25
2018-01-29T02:25:41.150Z,8.25
2018-01-29T02:26:43.640Z,8.25
2018-01-29T02:27:40.502Z,8.25
2018-01-29T02:28:42.762Z,8.25
2018-01-29T02:29:40.683Z,8.25
2018-01-29T02:30:40.259Z,8.31
2018-01-29T02:31:40.000Z,8.25
2018-01-29T02:32:41.749Z,8.25
2018-01-29T02:33:40.784Z,8.25
2018-01-29T02:34:43.018Z,8.25
2018-01-29T02:35:40.641Z,8.25
2018-01-29T02:36:41.927Z,8.25
2018-01-29T02:37:41.089Z,8.25
2018-01-29T02:38:39.898Z,8.25
2018-01-29T02:39:40.142Z,8.25
2018-01-29T02:40:41.458Z,8.25
2018-01-29T02:41:42.141Z,8.25
2018-01-29T02:42:40.953Z,8.25
2018-01-29T02:43:41.749Z,8.25
2018-01-29T02:44:42.772Z,8.25
2018-01-29T02:45:41.188Z,8.25
2018-01-29T02:46:42.264Z,8.31
2018-01-29T02:47:43.129Z,8.31
2018-01-29T02:48:39.919Z,8.25
2018-01-29T02:49:40.934Z,8.25
2018-01-29T02:50:39.895Z,8.25
2018-01-29T02:51:40.597Z,8.25
2018-01-29T02:52:40.196Z,8.31
2018-01-29T02:53:40.698Z,8.25
2018-01-29T02:54:40.833Z,8.25
2018-01-29T02:55:42.666Z,8.25
2018-01-29T02:56:42.918Z,8.25
2018-01-29T02:57:41.020Z,8.31
2018-01-29T02:58:42.392Z,8.25
2018-01-29T02:59:42.092Z,8.25
2018-01-29T03:00:41.667Z,8.25
2018-01-29T03:01:41.960Z,8.25
2018-01-29T03:02:40.628Z,8.25
2018-01-29T03:03:41.780Z,8.25
2018-01-29T03:04:41.516Z,8.25
2018-01-29T03:05:40.793Z,8.25
2018-01-29T03:06:42.201Z,8.25
2018-01-29T03:07:40.046Z,8.25
2018-01-29T03:08:39.804Z,8.25
2018-01-29T03:09:41.676Z,8.19
2018-01-29T03:10:40.137Z,8.25
2018-01-29T03:11:39.859Z,8.25
2018-01-29T03:12:40.124Z,8.25
2018-01-29T03:13:40.893Z,8.19
2018-01-29T03:14:40.444Z,8.19
2018-01-29T03:15:41.080Z,8.25
2018-01-29T03:16:41.063Z,8.19
2018-01-29T03:17:40.720Z,8.25
2018-01-29T03:18:40.860Z,8.19
2018-01-29T03:19:40.016Z,8.19
2018-01-29T03:20:40.075Z,8.25
2018-01-29T03:21:40.174Z,8.25
2018-01-29T03:22:41.884Z,8.25
2018-01-29T03:23:41.355Z,8.19
2018-01-29T03:24:40.066Z,8.25
2018-01-29T03:25:40.461Z,8.19
2018-01-29T03:26:41.899Z,8.19
2018-01-29T03:27:40.038Z,8.19
2018-01-29T03:28:40.990Z,8.25
2018-01-29T03:29:41.457Z,8.19
2018-01-29T03:30:40.902Z,8.19
2018-01-29T03:31:40.583Z,8.19
2018-01-29T03:32:42.339Z,8.19
2018-01-29T03:33:40.125Z,8.19
2018-01-29T03:34:40.643Z,8.19
2018-01-29T03:35:41.125Z,8.19
2018-01-29T03:36:40.249Z,8.19
2018-01-29T03:37:41.695Z,8.19
2018-01-29T03:38:41.269Z,8.19
2018-01-29T03:39:42.060Z,8.19
2018-01-29T03:40:41.019Z,8.19
2018-01-29T03:41:39.825Z,8.13
2018-01-29T03:42:43.261Z,8.19
2018-01-29T03:43:40.914Z,8.19
2018-01-29T03:44:39.772Z,8.13
2018-01-29T03:45:41.015Z,8.19
2018-01-29T03:46:39.731Z,8.19
2018-01-29T03:47:39.861Z,8.19
2018-01-29T03:48:40.357Z,8.13
2018-01-29T03:49:40.120Z,8.13
2018-01-29T03:50:41.008Z,8.13
2018-01-29T03:51:40.964Z,8.13
2018-01-29T03:52:41.707Z,8.19
2018-01-29T03:53:42.188Z,8.13
2018-01-29T03:54:40.709Z,8.19
2018-01-29T03:55:40.533Z,8.13
2018-01-29T03:56:40.951Z,8.19
2018-01-29T03:57:41.467Z,8.13
2018-01-29T03:58:42.705Z,8.13
2018-01-29T03:59:41.729Z,8.13
2018-01-29T04:00:40.198Z,8.06
2018-01-29T04:01:41.194Z,8.13
2018-01-29T04:02:41.732Z,8.13
2018-01-29T04:03:40.164Z,8.13
2018-01-29T04:04:40.535Z,8.06
2018-01-29T04:05:41.000Z,8.13
2018-01-29T04:06:40.961Z,8.13
2018-01-29T04:07:40.908Z,8.06
2018-01-29T04:08:41.471Z,8.13
2018-01-29T04:09:41.060Z,8.06
2018-01-29T04:10:41.096Z,8.06
2018-01-29T04:11:40.828Z,8.06
2018-01-29T04:12:40.782Z,8.06
2018-01-29T04:13:41.378Z,8.06
2018-01-29T04:14:40.652Z,8.06
2018-01-29T04:15:40.667Z,8
2018-01-29T04:16:41.630Z,8
2018-01-29T04:17:40.939Z,8
2018-01-29T04:18:41.727Z,8
2018-01-29T04:19:41.498Z,8.06
2018-01-29T04:20:40.234Z,8.06
2018-01-29T04:21:40.303Z,8.06
2018-01-29T04:22:42.425Z,8
2018-01-29T04:23:40.180Z,8.06
2018-01-29T04:24:40.821Z,8.06
2018-01-29T04:25:41.459Z,8.06
2018-01-29T04:26:40.742Z,8.06
2018-01-29T04:27:40.729Z,8
2018-01-29T04:28:41.631Z,8.06
2018-01-29T04:29:41.283Z,8.06
2018-01-29T04:30:40.971Z,8.06
2018-01-29T04:31:41.282Z,8
2018-01-29T04:32:41.503Z,8
2018-01-29T04:33:40.892Z,8
2018-01-29T04:34:42.882Z,8
2018-01-29T04:35:40.443Z,8.06
2018-01-29T04:36:41.382Z,8
2018-01-29T04:37:42.338Z,8.06
2018-01-29T04:38:40.696Z,8.06
2018-01-29T04:39:42.570Z,8.06
2018-01-29T04:40:42.246Z,8.06
2018-01-29T04:41:41.983Z,8
2018-01-29T04:42:40.954Z,8.06
2018-01-29T04:43:43.658Z,8
2018-01-29T04:44:40.434Z,8.06
2018-01-29T04:45:40.844Z,8.06
2018-01-29T04:46:41.465Z,8
2018-01-29T04:47:43.856Z,8.06
2018-01-29T04:48:40.710Z,8.13
2018-01-29T04:49:40.209Z,8.13
2018-01-29T04:50:42.343Z,8.06
2018-01-29T04:51:41.513Z,8.06
2018-01-29T04:52:40.025Z,8.06
2018-01-29T04:53:41.213Z,8.06
2018-01-29T04:54:41.256Z,8.06
2018-01-29T04:55:40.662Z,8.06
2018-01-29T04:56:41.032Z,8.06
2018-01-29T04:57:42.902Z,8.06
2018-01-29T04:58:42.911Z,8.06
2018-01-29T04:59:41.702Z,8.06
2018-01-29T05:00:41.674Z,8.06
2018-01-29T05:01:40.225Z,8.06
2018-01-29T05:02:40.551Z,8.13
2018-01-29T05:03:41.463Z,8.06
2018-01-29T05:04:40.942Z,8.13
2018-01-29T05:05:41.540Z,8.13
2018-01-29T05:06:45.058Z,8.06
2018-01-29T05:07:43.159Z,8.06
2018-01-29T05:08:40.716Z,8.13
2018-01-29T05:09:40.341Z,8.13
2018-01-29T05:10:41.890Z,8.06
2018-01-29T05:11:40.763Z,8.13
2018-01-29T05:15:41.576Z,8.13
2018-01-29T05:16:41.061Z,8.13
2018-01-29T05:17:40.938Z,8.06
2018-01-29T05:18:40.718Z,8.13
2018-01-29T05:19:43.654Z,8.13
2018-01-29T05:20:41.903Z,8.13
2018-01-29T05:21:41.415Z,8.13
2018-01-29T05:22:40.663Z,8.13
2018-01-29T05:23:41.696Z,8.19
2018-01-29T05:24:41.704Z,8.13
2018-01-29T05:25:42.965Z,8.13
2018-01-29T05:26:42.151Z,8.13
2018-01-29T05:27:40.668Z,8.19
2018-01-29T05:28:40.732Z,8.13
2018-01-29T05:29:41.465Z,8.19
2018-01-29T05:30:40.564Z,8.19
2018-01-29T05:31:42.435Z,8.13
2018-01-29T05:32:40.868Z,8.13
2018-01-29T05:33:42.012Z,8.13
2018-01-29T05:34:40.208Z,8.13
2018-01-29T05:35:40.181Z,8.19
2018-01-29T05:36:40.889Z,8.13
2018-01-29T05:37:41.265Z,8.19
2018-01-29T05:38:41.632Z,8.13
2018-01-29T05:39:42.060Z,8.13
2018-01-29T05:40:41.533Z,8.13
2018-01-29T05:41:42.432Z,8.13
2018-01-29T05:42:40.765Z,8.19
2018-01-29T05:43:41.543Z,8.19
2018-01-29T05:44:41.662Z,8.19
2018-01-29T05:45:40.525Z,8.19
2018-01-29T05:46:41.618Z,8.19
2018-01-29T05:47:43.131Z,8.19
2018-01-29T05:48:40.397Z,8.19
2018-01-29T05:49:42.758Z,8.19
2018-01-29T05:50:41.123Z,8.19
2018-01-29T05:51:41.280Z,8.19
2018-01-29T05:52:41.194Z,8.19
2018-01-29T05:53:40.180Z,8.19
2018-01-29T05:54:42.680Z,8.19
2018-01-29T05:55:40.247Z,8.19
2018-01-29T05:56:41.736Z,8.19
2018-01-29T05:57:40.563Z,8.25
2018-01-29T05:58:41.962Z,8.19
2018-01-29T06:02:01.043Z,8.19
2018-01-29T06:02:42.367Z,8.19
2018-01-29T06:03:40.762Z,8.19
2018-01-29T06:04:41.012Z,8.19
2018-01-29T06:05:40.695Z,8.19
2018-01-29T06:06:40.929Z,8.19
2018-01-29T06:07:42.279Z,8.19
2018-01-29T06:08:41.669Z,8.19
2018-01-29T06:09:42.132Z,8.19
2018-01-29T06:10:43.014Z,8.19
2018-01-29T06:11:44.598Z,8.19
2018-01-29T06:12:40.910Z,8.19
2018-01-29T06:13:41.682Z,8.25
2018-01-29T06:14:43.194Z,8.19
2018-01-29T06:15:40.572Z,8.25
2018-01-29T06:16:44.216Z,8.25
2018-01-29T06:17:41.063Z,8.25
2018-01-29T06:18:43.940Z,8.25
2018-01-29T06:19:40.790Z,8.25
2018-01-29T06:20:43.333Z,8.25
2018-01-29T06:21:42.133Z,8.25
2018-01-29T06:22:41.984Z,8.25
2018-01-29T06:23:41.366Z,8.25
2018-01-29T06:24:41.958Z,8.25
2018-01-29T06:25:42.136Z,8.25
2018-01-29T06:26:43.175Z,8.25
2018-01-29T06:27:40.925Z,8.25
2018-01-29T06:28:42.756Z,8.25
2018-01-29T06:29:40.774Z,8.25
2018-01-29T06:30:40.728Z,8.25
2018-01-29T06:31:42.556Z,8.25
2018-01-29T06:32:44.269Z,8.25
2018-01-29T06:33:41.543Z,8.25
2018-01-29T06:34:39.743Z,8.25
2018-01-29T06:35:41.078Z,8.25
2018-01-29T06:36:39.722Z,8.25
2018-01-29T06:37:39.877Z,8.25
2018-01-29T06:38:40.122Z,8.25
2018-01-29T06:39:39.778Z,8.25
2018-01-29T06:40:39.743Z,8.25
2018-01-29T06:41:39.645Z,8.19
2018-01-29T06:42:39.927Z,8.25
2018-01-29T06:43:39.936Z,8.25
2018-01-29T06:44:39.650Z,8.25
2018-01-29T06:45:39.683Z,8.25
2018-01-29T06:46:39.680Z,8.25
2018-01-29T06:47:39.833Z,8.25
2018-01-29T06:48:39.663Z,8.25
2018-01-29T06:49:39.682Z,8.25
2018-01-29T06:50:39.798Z,8.19
2018-01-29T06:51:39.888Z,8.25
2018-01-29T06:52:39.893Z,8.25
2018-01-29T06:53:39.977Z,8.25
2018-01-29T06:54:40.439Z,8.25
2018-01-29T06:55:39.887Z,8.25
2018-01-29T06:56:39.931Z,8.25
2018-01-29T06:57:39.862Z,8.25
2018-01-29T06:58:40.026Z,8.25
2018-01-29T06:59:39.877Z,8.19
2018-01-29T07:00:39.926Z,8.25
2018-01-29T07:01:39.905Z,8.25
2018-01-29T07:02:39.900Z,8.25
2018-01-29T07:03:40.297Z,8.25
2018-01-29T07:04:40.027Z,8.25
2018-01-29T07:05:39.990Z,8.25
2018-01-29T07:06:40.183Z,8.25
2018-01-29T07:07:40.315Z,8.25
2018-01-29T07:08:40.189Z,8.25
2018-01-29T07:09:40.064Z,8.25
2018-01-29T07:10:39.940Z,8.25
2018-01-29T07:11:40.114Z,8.25
2018-01-29T07:12:40.107Z,8.25
2018-01-29T07:13:40.136Z,8.25
2018-01-29T07:14:39.960Z,8.25
2018-01-29T07:15:39.936Z,8.25
2018-01-29T07:16:40.020Z,8.25
2018-01-29T07:17:40.049Z,8.25
2018-01-29T07:18:40.169Z,8.25
2018-01-29T07:19:40.151Z,8.31
2018-01-29T07:20:40.191Z,8.25
2018-01-29T07:21:40.069Z,8.31
2018-01-29T07:22:40.513Z,8.25
2018-01-29T07:23:40.387Z,8.31
2018-01-29T07:24:40.587Z,8.25
2018-01-29T07:25:40.492Z,8.31
2018-01-29T07:26:40.386Z,8.31
2018-01-29T07:27:40.077Z,8.31
2018-01-29T07:28:40.066Z,8.31
2018-01-29T07:29:39.880Z,8.31
2018-01-29T07:30:40.172Z,8.31
2018-01-29T07:31:40.099Z,8.31
2018-01-29T07:32:39.967Z,8.31
2018-01-29T07:33:40.393Z,8.31
2018-01-29T07:34:40.206Z,8.31
2018-01-29T07:35:40.140Z,8.31
2018-01-29T07:36:40.370Z,8.31
2018-01-29T07:37:40.244Z,8.38
2018-01-29T07:38:40.146Z,8.31
2018-01-29T07:39:40.339Z,8.31
2018-01-29T07:40:40.315Z,8.31
2018-01-29T07:41:39.951Z,8.31
2018-01-29T07:42:40.536Z,8.31
2018-01-29T07:43:40.300Z,8.31
2018-01-29T07:44:40.459Z,8.31
2018-01-29T07:45:40.451Z,8.31
2018-01-29T07:46:40.438Z,8.31
2018-01-29T07:47:40.298Z,8.31
2018-01-29T07:48:40.561Z,8.38
2018-01-29T07:49:40.459Z,8.31
2018-01-29T07:50:40.580Z,8.31
2018-01-29T07:51:40.582Z,8.38
2018-01-29T07:52:40.594Z,8.31
2018-01-29T07:53:40.632Z,8.31
2018-01-29T07:54:40.511Z,8.31
2018-01-29T07:55:40.645Z,8.38
2018-01-29T07:56:40.526Z,8.31
2018-01-29T07:57:40.440Z,8.31
2018-01-29T07:58:40.440Z,8.31
2018-01-29T07:59:40.368Z,8.31
2018-01-29T08:00:40.378Z,8.31
2018-01-29T08:01:40.441Z,8.31
2018-01-29T08:02:40.365Z,8.31
2018-01-29T08:03:40.549Z,8.31
2018-01-29T08:04:40.446Z,8.31
2018-01-29T08:05:40.529Z,8.31
2018-01-29T08:06:40.399Z,8.31
2018-01-29T08:07:40.519Z,8.38
2018-01-29T08:08:40.417Z,8.31
2018-01-29T08:09:40.567Z,8.31
2018-01-29T08:10:40.675Z,8.31
2018-01-29T08:11:40.763Z,8.31
2018-01-29T08:12:40.470Z,8.31
2018-01-29T08:13:40.422Z,8.38
2018-01-29T08:14:40.412Z,8.31
2018-01-29T08:15:40.475Z,8.31
2018-01-29T08:16:40.413Z,8.38
2018-01-29T08:17:40.388Z,8.31
2018-01-29T08:18:40.467Z,8.38
2018-01-29T08:19:40.345Z,8.38
2018-01-29T08:20:40.439Z,8.38
2018-01-29T08:21:40.461Z,8.38
2018-01-29T08:22:40.517Z,8.31
2018-01-29T08:23:40.513Z,8.38
2018-01-29T08:24:40.339Z,8.31
2018-01-29T08:25:40.434Z,8.38
2018-01-29T08:26:40.405Z,8.31
2018-01-29T08:27:40.559Z,8.38
2018-01-29T08:28:40.636Z,8.38
2018-01-29T08:29:40.313Z,8.38
2018-01-29T08:30:40.468Z,8.38
2018-01-29T08:31:40.590Z,8.38
2018-01-29T08:32:40.493Z,8.38
2018-01-29T08:33:40.735Z,8.38
2018-01-29T08:34:40.509Z,8.38
2018-01-29T08:35:40.542Z,8.38
2018-01-29T08:36:40.713Z,8.44
2018-01-29T08:37:40.437Z,8.38
2018-01-29T08:38:40.499Z,8.38
2018-01-29T08:39:40.429Z,8.38
2018-01-29T08:40:40.520Z,8.38
2018-01-29T08:41:40.529Z,8.44
2018-01-29T08:42:40.435Z,8.44
2018-01-29T08:43:40.711Z,8.44
2018-01-29T08:44:40.447Z,8.38
2018-01-29T08:45:40.573Z,8.38
2018-01-29T08:46:40.443Z,8.44
2018-01-29T08:47:40.470Z,8.44
2018-01-29T08:48:40.604Z,8.44
2018-01-29T08:49:40.458Z,8.44
2018-01-29T08:50:40.501Z,8.44
2018-01-29T08:51:40.424Z,8.44
2018-01-29T08:52:41.014Z,8.44
2018-01-29T08:53:40.596Z,8.44
2018-01-29T08:54:40.596Z,8.44
2018-01-29T08:55:40.558Z,8.44
2018-01-29T08:56:40.516Z,8.44
2018-01-29T08:57:40.624Z,8.44
2018-01-29T08:58:40.762Z,8.38
2018-01-29T08:59:40.622Z,8.44
2018-01-29T09:00:41.540Z,8.44
2018-01-29T09:01:40.433Z,8.44
2018-01-29T09:02:40.488Z,8.44
2018-01-29T09:03:40.592Z,8.44
2018-01-29T09:04:40.508Z,8.44
2018-01-29T09:05:40.978Z,8.44
2018-01-29T09:06:40.853Z,8.44
2018-01-29T09:07:40.912Z,8.44
2018-01-29T09:08:40.415Z,8.44
2018-01-29T09:09:40.527Z,8.44
2018-01-29T09:10:41.013Z,8.44
2018-01-29T09:11:40.652Z,8.44
2018-01-29T09:12:40.672Z,8.44
2018-01-29T09:13:40.516Z,8.44
2018-01-29T09:14:40.563Z,8.5
2018-01-29T09:15:40.568Z,8.5
2018-01-29T09:16:40.687Z,8.44
2018-01-29T09:17:40.674Z,8.5
2018-01-29T09:18:40.714Z,8.5
2018-01-29T09:19:40.479Z,8.5
2018-01-29T09:20:40.466Z,8.5
2018-01-29T09:21:40.642Z,8.5
2018-01-29T09:22:40.656Z,8.5
2018-01-29T09:23:40.512Z,8.5
2018-01-29T09:24:40.605Z,8.56
2018-01-29T09:25:40.632Z,8.5
2018-01-29T09:26:40.430Z,8.5
2018-01-29T09:27:40.683Z,8.5
2018-01-29T09:28:40.632Z,8.5
2018-01-29T09:29:40.673Z,8.5
2018-01-29T09:30:40.582Z,8.5
2018-01-29T09:31:40.692Z,8.56
2018-01-29T09:32:40.671Z,8.5
2018-01-29T09:33:40.788Z,8.56
2018-01-29T09:34:40.636Z,8.56
2018-01-29T09:35:40.633Z,8.56
2018-01-29T09:36:40.652Z,8.56
2018-01-29T09:37:40.838Z,8.56
2018-01-29T09:38:41.320Z,8.56
2018-01-29T09:39:41.448Z,8.56
2018-01-29T09:40:41.664Z,8.63
2018-01-29T09:41:41.097Z,8.63
2018-01-29T09:42:41.354Z,8.56
2018-01-29T09:43:40.883Z,8.63
2018-01-29T09:44:41.257Z,8.63
2018-01-29T09:45:41.648Z,8.63
2018-01-29T09:46:40.644Z,8.63
2018-01-29T09:47:40.449Z,8.63
2018-01-29T09:48:40.566Z,8.63
2018-01-29T09:49:40.836Z,8.63
2018-01-29T09:50:40.587Z,8.63
2018-01-29T09:51:41.116Z,8.69
2018-01-29T09:52:40.672Z,8.69
2018-01-29T09:53:41.049Z,8.69
2018-01-29T09:54:40.699Z,8.69
2018-01-29T09:55:40.763Z,8.69
2018-01-29T09:56:41.067Z,8.75
2018-01-29T09:57:41.091Z,8.69
2018-01-29T09:58:41.511Z,8.75
2018-01-29T09:59:40.616Z,8.69
2018-01-29T10:00:40.809Z,8.75
2018-01-29T10:01:41.102Z,8.75
2018-01-29T10:02:40.577Z,8.75
2018-01-29T10:03:40.823Z,8.75
2018-01-29T10:04:40.591Z,8.75
2018-01-29T10:05:40.476Z,8.75
2018-01-29T10:06:40.621Z,8.75
2018-01-29T10:07:40.553Z,8.75
2018-01-29T10:08:40.431Z,8.75
2018-01-29T10:09:40.241Z,8.75
2018-01-29T10:10:40.478Z,8.75
2018-01-29T10:11:40.172Z,8.75
2018-01-29T10:12:40.420Z,8.81
2018-01-29T10:13:40.409Z,8.75
2018-01-29T10:14:40.263Z,8.75
2018-01-29T10:15:40.367Z,8.75
2018-01-29T10:16:40.428Z,8.81
2018-01-29T10:17:40.553Z,8.81
2018-01-29T10:18:40.577Z,8.75
2018-01-29T10:19:40.423Z,8.75
2018-01-29T10:20:40.697Z,8.75
2018-01-29T10:21:40.553Z,8.75
2018-01-29T10:22:40.583Z,8.75
2018-01-29T10:23:40.603Z,8.81
2018-01-29T10:24:40.613Z,8.75
2018-01-29T10:25:40.530Z,8.75
2018-01-29T10:26:40.529Z,8.81
2018-01-29T10:27:40.639Z,8.75
2018-01-29T10:28:40.387Z,8.81
2018-01-29T10:29:40.432Z,8.81
2018-01-29T10:30:40.253Z,8.75
2018-01-29T10:31:40.256Z,8.75
2018-01-29T10:32:40.619Z,8.81
2018-01-29T10:33:40.501Z,8.81
2018-01-29T10:34:40.489Z,8.81
2018-01-29T10:35:40.682Z,8.81
2018-01-29T10:36:40.309Z,8.81
2018-01-29T10:37:40.380Z,8.81
2018-01-29T10:38:40.432Z,8.81
2018-01-29T10:39:40.571Z,8.81
2018-01-29T10:40:40.378Z,8.81
2018-01-29T10:41:40.407Z,8.81
2018-01-29T10:42:40.684Z,8.81
2018-01-29T10:43:40.615Z,8.81
2018-01-29T10:44:40.547Z,8.88
2018-01-29T10:45:40.558Z,8.88
2018-01-29T10:46:40.665Z,8.88
2018-01-29T10:47:40.673Z,8.88
2018-01-29T10:48:40.480Z,8.88
2018-01-29T10:49:40.919Z,8.88
2018-01-29T10:50:40.607Z,8.88
2018-01-29T10:51:40.548Z,8.94
2018-01-29T10:52:40.321Z,8.88
2018-01-29T10:53:40.672Z,8.94
2018-01-29T10:54:40.530Z,8.94
2018-01-29T10:55:40.581Z,8.88
2018-01-29T10:56:40.384Z,8.94
2018-01-29T11:00:40.961Z,8.94
2018-01-29T11:01:40.579Z,8.94
2018-01-29T11:02:40.640Z,8.94
2018-01-29T11:03:40.982Z,8.94
2018-01-29T11:04:41.341Z,9
2018-01-29T11:05:41.320Z,9
2018-01-29T11:06:40.655Z,9
2018-01-29T11:07:40.775Z,9
2018-01-29T11:08:40.625Z,8.94
2018-01-29T11:09:40.971Z,9
2018-01-29T11:10:41.022Z,9
2018-01-29T11:11:40.790Z,8.94
2018-01-29T11:12:40.491Z,9.06
2018-01-29T11:13:40.756Z,8.94
2018-01-29T11:14:41.293Z,9.06
2018-01-29T11:15:40.814Z,9
2018-01-29T11:16:40.887Z,9.06
2018-01-29T11:17:40.774Z,9
2018-01-29T11:18:40.738Z,9
2018-01-29T11:19:40.837Z,9.06
2018-01-29T11:20:40.626Z,9.06
2018-01-29T11:21:40.787Z,9.06
2018-01-29T11:22:40.604Z,9
2018-01-29T11:23:40.702Z,9.06
2018-01-29T11:24:40.775Z,9.06
2018-01-29T11:25:40.613Z,9.06
2018-01-29T11:26:40.754Z,9.06
2018-01-29T11:27:40.943Z,9.06
2018-01-29T11:28:40.635Z,9.13
2018-01-29T11:29:40.867Z,9.06
2018-01-29T11:30:40.656Z,9.13
2018-01-29T11:31:40.852Z,9.06
2018-01-29T11:32:40.709Z,9.13
2018-01-29T11:33:41.028Z,9.13
2018-01-29T11:34:41.016Z,9.13
2018-01-29T11:35:40.668Z,9.13
2018-01-29T11:36:40.744Z,9.13
2018-01-29T11:37:40.601Z,9.13
2018-01-29T11:38:40.777Z,9.13
2018-01-29T11:39:40.784Z,9.13
2018-01-29T11:40:40.549Z,9.19
2018-01-29T11:41:40.568Z,9.13
2018-01-29T11:42:40.843Z,9.13
2018-01-29T11:43:40.972Z,9.13
2018-01-29T11:44:40.845Z,9.13
2018-01-29T11:45:40.776Z,9.13
2018-01-29T11:46:40.873Z,9.13
2018-01-29T11:47:40.968Z,9.19
2018-01-29T11:48:41.048Z,9.13
2018-01-29T11:49:40.999Z,9.19
2018-01-29T11:50:40.706Z,9.13
2018-01-29T11:51:40.863Z,9.19
2018-01-29T11:52:40.901Z,9.13
2018-01-29T11:53:40.820Z,9.19
2018-01-29T11:54:40.986Z,9.19
2018-01-29T11:55:40.584Z,9.19
2018-01-29T11:56:40.671Z,9.19
2018-01-29T11:57:40.537Z,9.19
2018-01-29T11:58:40.910Z,9.13
2018-01-29T12:00:40.521Z,9.19
2018-01-29T12:01:40.540Z,9.19
2018-01-29T12:02:40.856Z,9.13
2018-01-29T12:03:41.532Z,9.19
2018-01-29T12:04:39.942Z,9.19
2018-01-29T12:05:40.032Z,9.13
2018-01-29T12:06:40.553Z,9.13
2018-01-29T12:07:39.843Z,9.19
2018-01-29T12:08:40.057Z,9.19
2018-01-29T12:09:40.032Z,9.19
2018-01-29T12:10:40.113Z,9.19
2018-01-29T12:11:39.976Z,9.19
2018-01-29T12:12:40.325Z,9.19
2018-01-29T12:13:39.846Z,9.19
2018-01-29T12:14:39.995Z,9.19
2018-01-29T12:15:40.205Z,9.19
2018-01-29T12:16:39.858Z,9.19
2018-01-29T12:17:40.251Z,9.19
2018-01-29T12:18:40.241Z,9.19
2018-01-29T12:19:40.018Z,9.19
2018-01-29T12:20:40.070Z,9.19
2018-01-29T12:21:40.100Z,9.19
2018-01-29T12:22:40.084Z,9.19
2018-01-29T12:23:40.092Z,9.19
2018-01-29T12:24:40.005Z,9.19
2018-01-29T12:25:40.004Z,9.19
2018-01-29T12:26:40.063Z,9.19
2018-01-29T12:27:40.016Z,9.19
2018-01-29T12:28:40.056Z,9.25
2018-01-29T12:29:39.951Z,9.25
2018-01-29T12:30:40.067Z,9.25
2018-01-29T12:31:40.329Z,9.25
2018-01-29T12:32:39.955Z,9.25
2018-01-29T12:33:40.535Z,9.25
2018-01-29T12:34:40.349Z,9.25
2018-01-29T12:35:40.520Z,9.25
2018-01-29T12:36:40.268Z,9.25
2018-01-29T12:37:40.270Z,9.25
2018-01-29T12:38:40.086Z,9.25
2018-01-29T12:39:40.201Z,9.31
2018-01-29T12:40:40.119Z,9.31
2018-01-29T12:41:40.134Z,9.25
2018-01-29T12:42:40.120Z,9.31
2018-01-29T12:43:40.111Z,9.31
2018-01-29T12:44:40.358Z,9.38
2018-01-29T12:45:40.118Z,9.38
2018-01-29T12:46:40.509Z,9.38
2018-01-29T12:47:40.602Z,9.38
2018-01-29T12:48:40.284Z,9.38
2018-01-29T12:49:40.459Z,9.38
2018-01-29T12:50:40.260Z,9.38
2018-01-29T12:51:40.641Z,9.44
2018-01-29T12:52:40.357Z,9.38
2018-01-29T12:53:40.345Z,9.44
2018-01-29T12:54:40.433Z,9.44
2018-01-29T12:55:40.212Z,9.44
2018-01-29T12:56:40.194Z,9.44
2018-01-29T12:57:40.085Z,9.38
2018-01-29T12:58:40.224Z,9.44
2018-01-29T12:59:40.455Z,9.44
2018-01-29T13:00:40.299Z,9.44
2018-01-29T13:01:40.093Z,9.44
2018-01-29T13:02:40.295Z,9.38
2018-01-29T13:03:40.406Z,9.44
2018-01-29T13:04:40.649Z,9.38
2018-01-29T13:05:40.357Z,9.44
2018-01-29T13:06:40.160Z,9.44
2018-01-29T13:07:40.446Z,9.44
2018-01-29T13:08:40.538Z,9.44
2018-01-29T13:09:40.562Z,9.38
2018-01-29T13:10:40.653Z,9.44
2018-01-29T13:11:40.371Z,9.44
2018-01-29T13:12:40.239Z,9.44
2018-01-29T13:13:40.218Z,9.38
2018-01-29T13:14:40.189Z,9.44
2018-01-29T13:15:40.575Z,9.38
2018-01-29T13:16:40.331Z,9.38
2018-01-29T13:17:40.475Z,9.44
2018-01-29T13:18:40.197Z,9.38
2018-01-29T13:19:40.200Z,9.44
2018-01-29T13:20:40.663Z,9.44
2018-01-29T13:21:40.477Z,9.44
2018-01-29T13:22:40.490Z,9.38
2018-01-29T13:23:40.414Z,9.38
2018-01-29T13:24:40.378Z,9.44
2018-01-29T13:25:40.424Z,9.44
2018-01-29T13:26:40.195Z,9.44
2018-01-29T13:27:40.393Z,9.44
2018-01-29T13:28:40.117Z,9.44
2018-01-29T13:29:40.633Z,9.44
2018-01-29T13:30:40.237Z,9.44